createdAt,value
2018-12-27T00:00:11.455Z,102601.14
2018-12-27T00:03:30.625Z,102604.53
2018-12-27T00:06:39.242Z,102600.28
2018-12-27T00:09:47.759Z,102603.24
2018-12-27T00:13:08.182Z,102602.84
2018-12-27T00:16:28.945Z,102595.98
2018-12-27T00:19:48.899Z,102598.11
2018-12-27T00:23:11.376Z,102591.24
2018-12-27T00:30:40.467Z,102592.14
2018-12-27T00:33:49.317Z,102583.08
2018-12-27T00:36:58.264Z,102578.87
2018-12-27T00:40:08.150Z,102578.38
2018-12-27T00:43:17.479Z,102582.69
2018-12-27T00:46:38.449Z,102578.83
2018-12-27T00:53:36.663Z,102574.50
2018-12-27T00:57:07.869Z,102565.48
2018-12-27T01:00:16.736Z,102570.66
2018-12-27T01:03:25.608Z,102565.06
2018-12-27T01:06:34.431Z,102565.55
2018-12-27T01:09:43.270Z,102570.22
2018-12-27T01:12:52.202Z,102571.47
2018-12-27T01:16:02.298Z,102565.50
2018-12-27T01:19:11.283Z,102567.22
2018-12-27T01:22:20.213Z,102576.72
2018-12-27T01:25:29.043Z,102564.23
2018-12-27T01:28:38.057Z,102559.13
2018-12-27T01:31:50.572Z,102561.72
2018-12-27T01:34:57.638Z,102565.14
2018-12-27T01:38:06.508Z,102558.31
2018-12-27T01:41:15.375Z,102560.03
2018-12-27T01:44:24.181Z,102550.96
2018-12-27T01:47:32.983Z,102541.07
2018-12-27T01:50:41.884Z,102538.00
2018-12-27T01:54:01.362Z,102529.77
2018-12-27T01:57:33.535Z,102530.63
2018-12-27T02:00:42.466Z,102532.42
2018-12-27T02:04:13.441Z,102523.28
2018-12-27T02:07:33.423Z,102525.91
2018-12-27T02:10:53.407Z,102520.80
2018-12-27T02:14:24.365Z,102516.92
2018-12-27T02:17:44.392Z,102515.67
2018-12-27T02:20:53.197Z,102521.70
2018-12-27T02:24:02.139Z,102515.23
2018-12-27T02:27:11.052Z,102510.91
2018-12-27T02:30:19.913Z,102507.98
2018-12-27T02:33:35.216Z,102510.99
2018-12-27T02:36:51.456Z,102509.25
2018-12-27T02:40:00.376Z,102502.30
2018-12-27T02:43:09.003Z,102501.86
2018-12-27T02:46:36.981Z,102496.75
2018-12-27T02:49:45.997Z,102494.58
2018-12-27T02:52:54.918Z,102491.15
2018-12-27T02:56:03.874Z,102492.45
2018-12-27T02:59:14.840Z,102485.97
2018-12-27T03:02:23.778Z,102476.08
2018-12-27T03:05:32.583Z,102473.50
2018-12-27T03:08:41.929Z,102475.22
2018-12-27T03:15:30.281Z,102477.33
2018-12-27T03:18:39.277Z,102478.23
2018-12-27T03:22:24.820Z,102468.30
2018-12-27T03:25:33.741Z,102476.53
2018-12-27T03:28:42.782Z,102466.66
2018-12-27T03:31:51.642Z,102463.23
2018-12-27T03:35:00.457Z,102467.53
2018-12-27T03:38:09.291Z,102468.36
2018-12-27T03:41:18.173Z,102458.95
2018-12-27T03:44:27.169Z,102467.56
2018-12-27T03:48:00.387Z,102459.77
2018-12-27T03:51:20.662Z,102452.45
2018-12-27T03:54:29.640Z,102462.80
2018-12-27T03:58:20.538Z,102454.16
2018-12-27T04:01:51.086Z,102457.64
2018-12-27T04:05:23.622Z,102455.45
2018-12-27T04:08:31.130Z,102447.80
2018-12-27T04:11:39.968Z,102443.44
2018-12-27T04:14:48.858Z,102443.46
2018-12-27T04:17:57.478Z,102446.91
2018-12-27T04:21:06.005Z,102440.00
2018-12-27T04:24:15.414Z,102441.34
2018-12-27T04:27:24.071Z,102435.72
2018-12-27T04:30:51.759Z,102434.82
2018-12-27T04:34:00.065Z,102438.75
2018-12-27T04:37:27.778Z,102432.28
2018-12-27T04:40:36.486Z,102430.97
2018-12-27T04:43:45.777Z,102432.74
2018-12-27T04:51:02.746Z,102430.61
2018-12-27T04:54:22.688Z,102427.16
2018-12-27T04:57:42.542Z,102424.59
2018-12-27T05:01:03.402Z,102425.44
2018-12-27T05:04:18.116Z,102424.59
2018-12-27T05:07:22.238Z,102426.70
2018-12-27T05:10:30.739Z,102420.70
2018-12-27T05:13:39.353Z,102420.72
2018-12-27T05:16:48.040Z,102410.82
2018-12-27T05:19:56.611Z,102416.42
2018-12-27T05:23:27.402Z,102410.38
2018-12-27T05:26:47.976Z,102413.84
2018-12-27T05:29:56.626Z,102417.70
2018-12-27T05:33:05.182Z,102418.58
2018-12-27T05:36:13.649Z,102425.06
2018-12-27T05:43:37.560Z,102433.22
2018-12-27T05:46:57.390Z,102432.34
2018-12-27T05:50:05.925Z,102431.07
2018-12-27T05:53:14.505Z,102441.39
2018-12-27T05:56:22.988Z,102438.36
2018-12-27T05:59:31.650Z,102441.81
2018-12-27T06:03:15.669Z,102437.05
2018-12-27T06:10:41.435Z,102441.34
2018-12-27T06:14:16.537Z,102430.58
2018-12-27T06:17:36.729Z,102431.90
2018-12-27T06:20:56.715Z,102438.34
2018-12-27T06:24:41.993Z,102444.36
2018-12-27T06:28:06.226Z,102440.88
2018-12-27T06:31:14.722Z,102446.47
2018-12-27T06:34:41.357Z,102442.20
2018-12-27T06:38:11.130Z,102448.62
2018-12-27T06:41:30.999Z,102449.09
2018-12-27T06:45:16.117Z,102446.11
2018-12-27T06:48:48.357Z,102441.80
2018-12-27T06:52:18.985Z,102445.22
2018-12-27T06:55:38.192Z,102442.19
2018-12-27T06:58:46.771Z,102437.03
2018-12-27T07:01:55.230Z,102430.97
2018-12-27T07:05:03.727Z,102433.59
2018-12-27T07:08:12.204Z,102432.27
2018-12-27T07:11:47.176Z,102421.48
2018-12-27T07:19:20.619Z,102406.84
2018-12-27T07:30:44.341Z,102407.22
2018-12-27T07:45:38.251Z,102396.05
2018-12-27T07:48:57.328Z,102402.47
2018-12-27T07:52:05.974Z,102398.23
2018-12-27T07:55:14.563Z,102403.82
2018-12-27T07:58:23.177Z,102402.94
2018-12-27T08:01:31.652Z,102405.49
2018-12-27T08:04:40.139Z,102401.18
2018-12-27T08:24:29.848Z,102409.31
2018-12-27T09:19:50.810Z,102405.92
2018-12-27T09:22:59.279Z,102403.70
2018-12-27T09:26:07.760Z,102402.86
2018-12-27T09:29:16.378Z,102407.19
2018-12-27T09:32:24.962Z,102401.58
2018-12-27T09:35:33.489Z,102407.62
2018-12-27T09:38:40.472Z,102406.34
2018-12-27T09:41:48.959Z,102412.86
2018-12-27T09:44:57.475Z,102407.70
2018-12-27T09:48:05.998Z,102409.77
2018-12-27T09:51:14.569Z,102398.13
2018-12-27T09:54:23.053Z,102395.55
2018-12-27T10:05:16.838Z,102388.16
2018-12-27T10:19:50.109Z,102398.14
2018-12-27T10:26:51.472Z,102408.85
2018-12-27T10:34:33.768Z,102395.47
2018-12-27T10:45:29.411Z,102400.17
2018-12-27T10:48:37.922Z,102395.88
2018-12-27T10:51:46.386Z,102390.80
2018-12-27T11:49:52.368Z,102362.92
2018-12-27T12:04:33.412Z,102357.69
2018-12-27T12:15:17.001Z,102337.70
2018-12-27T13:05:12.837Z,102345.91
2018-12-27T13:19:49.136Z,102332.83
2018-12-27T15:04:30.007Z,102316.52
2018-12-27T15:59:09.097Z,102319.64
2018-12-27T16:02:17.601Z,102316.16
2018-12-27T16:16:48.877Z,102312.88
2018-12-27T16:20:07.858Z,102313.70
2018-12-27T16:23:16.359Z,102318.43
2018-12-27T16:26:24.850Z,102308.92
2018-12-27T16:29:33.411Z,102307.70
2018-12-27T16:32:41.925Z,102302.13
2018-12-27T16:36:00.975Z,102305.12
2018-12-27T16:39:09.770Z,102306.81
2018-12-27T16:42:21.751Z,102298.65
2018-12-27T16:45:28.620Z,102304.79
2018-12-27T16:48:37.109Z,102303.94
2018-12-27T16:51:45.594Z,102299.13
2018-12-27T16:55:04.451Z,102306.86
2018-12-27T16:58:13.018Z,102312.08
2018-12-27T17:01:21.522Z,102308.11
2018-12-27T17:04:30.022Z,102311.59
2018-12-27T19:46:48.020Z,102334.89
2018-12-27T19:50:06.895Z,102344.84
2018-12-27T19:53:15.414Z,102339.67
2018-12-27T19:56:23.913Z,102347.84
2018-12-27T20:07:20.919Z,102346.10
2018-12-27T20:10:39.958Z,102339.11
2018-12-27T20:25:31.264Z,102333.84
2018-12-27T20:28:39.785Z,102343.44
2018-12-27T20:31:48.290Z,102336.56
2018-12-27T20:34:56.859Z,102338.37
2018-12-27T20:38:06.800Z,102333.16
2018-12-27T20:41:15.665Z,102332.27
2018-12-27T20:44:34.609Z,102328.71
2018-12-27T21:07:10.793Z,102311.52
2018-12-27T21:10:18.491Z,102302.89
2018-12-27T21:13:27.009Z,102298.28
2018-12-27T21:16:35.756Z,102304.31
2018-12-27T21:19:44.344Z,102303.91
2018-12-27T21:22:52.891Z,102303.02
2018-12-27T22:35:11.276Z,102308.11
2018-12-27T22:38:19.933Z,102304.30
2018-12-27T22:41:28.558Z,102305.93
2018-12-27T22:44:37.074Z,102293.88
2018-12-27T22:47:45.751Z,102283.11
2018-12-27T22:50:54.357Z,102280.20
2018-12-27T22:54:02.937Z,102282.34
2018-12-27T22:57:10.695Z,102279.23
2018-12-27T23:00:36.337Z,102277.09
2018-12-27T23:15:14.448Z,102286.10
2018-12-27T23:38:39.736Z,102284.72
2018-12-27T23:41:48.209Z,102282.58
